Time;durP1;ratioP1;P1;durP2;ratioP2;P2;SDS_P1;SDS_P2;PMS_P1;PMS_P2;Temp;Humidity;BMP_temperature;BMP_pressure;BME280_temperature;BME280_humidity;BME280_pressure;Samples;Min_cycle;Max_cycle;Signal;HPM_P1;HPM_P2
2023/10/26 00:00:47;;;;;;;0.70;0.63;;;12.20;90.30;;;11.57;89.89;96031.28;4950861;28;20853;-76
2023/10/26 00:03:16;;;;;;;1.13;0.80;;;12.20;90.40;;;11.53;89.73;96041.03;4968361;28;20461;-77
2023/10/26 00:05:43;;;;;;;0.60;0.60;;;12.20;90.20;;;11.60;88.73;96040.75;4968841;28;20526;-75
2023/10/26 00:08:10;;;;;;;1.87;0.70;;;12.20;90.00;;;11.61;89.25;96042.38;4964496;28;20474;-75
2023/10/26 00:10:40;;;;;;;1.70;0.90;;;12.20;90.10;;;11.74;87.87;96041.00;4978166;28;20804;-76
2023/10/26 00:13:07;;;;;;;0.53;0.53;;;12.20;89.90;;;11.58;88.23;96043.72;4980514;28;20489;-75
2023/10/26 00:15:35;;;;;;;0.70;0.60;;;12.20;89.60;;;11.71;88.22;96046.97;4944944;28;20607;-81
2023/10/26 00:18:02;;;;;;;0.70;0.70;;;12.20;89.80;;;11.64;88.26;96057.28;4963286;28;20503;-77
2023/10/26 00:20:31;;;;;;;0.57;0.50;;;12.20;89.60;;;11.69;88.83;96060.78;4963445;28;20521;-77
2023/10/26 00:22:59;;;;;;;0.60;0.50;;;12.20;89.90;;;11.65;88.74;96053.47;4966359;28;20485;-78
2023/10/26 00:25:26;;;;;;;0.90;0.53;;;12.20;90.00;;;11.59;89.49;96056.16;4967454;28;20561;-76
2023/10/26 00:27:53;;;;;;;0.80;0.60;;;12.10;90.00;;;11.61;88.99;96064.84;4960917;28;20464;-77
2023/10/26 00:30:20;;;;;;;0.40;0.30;;;12.10;90.10;;;11.60;88.68;96057.81;4950068;28;20544;-76
2023/10/26 00:32:47;;;;;;;0.60;0.57;;;12.10;90.00;;;11.58;88.74;96059.94;4960257;28;20455;-77
2023/10/26 00:35:15;;;;;;;0.60;0.60;;;12.20;90.00;;;11.57;89.12;96058.31;4962692;28;20453;-77
2023/10/26 00:37:43;;;;;;;0.70;0.53;;;12.20;90.10;;;11.58;88.77;96059.16;4964986;28;20449;-74
2023/10/26 00:40:13;;;;;;;0.57;0.57;;;12.10;90.00;;;11.51;89.60;96054.00;4943661;28;20474;-77
2023/10/26 00:42:40;;;;;;;1.73;0.50;;;12.10;90.00;;;11.36;89.40;96049.38;4960761;28;20459;-77
2023/10/26 00:45:07;;;;;;;0.63;0.50;;;12.00;90.00;;;11.45;89.96;96052.41;4951783;28;20544;-76
2023/10/26 00:47:35;;;;;;;0.80;0.50;;;12.10;90.10;;;11.43;89.96;96043.72;4958592;28;20528;-76
2023/10/26 00:50:03;;;;;;;0.50;0.50;;;12.10;90.10;;;11.44;89.50;96042.63;4943119;28;21184;-76
2023/10/26 00:52:30;;;;;;;1.33;0.60;;;12.00;90.00;;;11.29;90.50;96030.72;4948282;28;20466;-78
2023/10/26 00:54:59;;;;;;;2.10;0.60;;;12.00;90.20;;;11.44;88.60;96042.63;4962767;28;20459;-78
2023/10/26 00:57:28;;;;;;;0.70;0.70;;;12.00;89.80;;;11.44;88.87;96045.34;4975479;28;20821;-76
2023/10/26 00:59:55;;;;;;;0.73;0.73;;;12.00;89.80;;;11.59;87.47;96034.53;4945239;28;20484;-77
2023/10/26 01:02:24;;;;;;;1.47;0.80;;;12.10;89.40;;;11.55;87.45;96043.47;4959678;28;20461;-77
2023/10/26 01:04:52;;;;;;;2.10;0.70;;;12.10;89.10;;;11.53;87.41;96042.94;4961859;28;20463;-77
2023/10/26 01:07:19;;;;;;;1.07;0.63;;;12.10;89.00;;;11.46;87.22;96043.19;4949298;28;20457;-76
2023/10/26 01:09:47;;;;;;;0.80;0.60;;;12.00;88.90;;;11.52;86.37;96038.59;4969298;28;20568;-76
2023/10/26 01:12:16;;;;;;;0.50;0.50;;;12.10;88.60;;;11.50;85.15;96029.94;4969944;28;20949;-78
2023/10/26 01:14:44;;;;;;;0.60;0.43;;;12.10;88.00;;;11.73;84.03;96040.22;4951718;28;20814;-77
2023/10/26 01:17:12;;;;;;;0.60;0.60;;;12.20;87.50;;;11.66;84.07;96038.88;4943643;28;20473;-77
2023/10/26 01:19:41;;;;;;;0.70;0.50;;;12.20;87.10;;;11.55;84.51;96030.75;4954121;28;21004;-76
2023/10/26 01:22:11;;;;;;;0.60;0.50;;;12.20;87.10;;;11.57;84.15;96042.09;4960545;28;20454;-77
2023/10/26 01:24:39;;;;;;;2.57;0.70;;;12.20;86.70;;;11.57;83.14;96049.41;4940981;28;20946;-76
2023/10/26 01:27:06;;;;;;;1.90;0.50;;;12.20;86.40;;;11.65;82.36;96034.53;4962199;28;20450;-77
2023/10/26 01:29:34;;;;;;;0.50;0.50;;;12.20;86.00;;;11.73;81.78;96044.81;4968204;28;20464;-76
2023/10/26 01:32:01;;;;;;;2.30;0.50;;;12.30;85.90;;;11.74;81.46;96041.84;4965338;28;20517;-76
2023/10/26 01:34:29;;;;;;;0.50;0.40;;;12.30;85.70;;;11.87;80.94;96042.38;4972793;28;20508;-76
2023/10/26 01:36:56;;;;;;;0.73;0.40;;;12.30;85.30;;;11.80;80.69;96034.53;4947077;28;20462;-77
2023/10/26 01:39:25;;;;;;;0.50;0.37;;;12.30;85.20;;;11.75;80.58;96039.94;4950046;28;20853;-75
2023/10/26 01:41:53;;;;;;;0.50;0.40;;;12.30;84.90;;;11.80;79.62;96047.25;4963289;28;20544;-77
2023/10/26 01:44:20;;;;;;;0.80;0.47;;;12.40;84.60;;;11.86;79.51;96044.25;4961174;28;20572;-77
2023/10/26 01:46:48;;;;;;;0.67;0.43;;;12.40;84.50;;;11.72;80.51;96037.78;4961370;28;20464;-75
2023/10/26 01:49:15;;;;;;;0.70;0.40;;;12.30;84.70;;;11.69;80.48;96043.72;4945904;28;20445;-76
2023/10/26 01:51:42;;;;;;;0.60;0.30;;;12.30;84.60;;;11.75;79.69;96039.94;4966277;28;20453;-77
2023/10/26 01:54:09;;;;;;;0.63;0.50;;;12.30;84.40;;;11.74;79.31;96041.84;4946075;28;20460;-75
2023/10/26 01:56:38;;;;;;;0.57;0.43;;;12.30;84.20;;;11.65;79.85;96032.63;4967692;28;20535;-77
2023/10/26 01:59:05;;;;;;;0.73;0.50;;;12.30;84.10;;;11.72;79.28;96035.06;4979728;28;20821;-78
2023/10/26 02:01:32;;;;;;;0.67;0.40;;;12.30;84.00;;;11.72;79.27;96049.41;4964224;28;20468;-77
2023/10/26 02:03:59;;;;;;;0.67;0.50;;;12.30;84.00;;;11.75;79.07;96042.63;4979171;28;20465;-77
2023/10/26 02:06:27;;;;;;;0.40;0.30;;;12.30;83.90;;;11.58;80.01;96049.13;4965902;28;20452;-78
2023/10/26 02:08:54;;;;;;;0.50;0.30;;;12.30;84.00;;;11.69;78.96;96043.72;4965597;28;20471;-78
2023/10/26 02:11:21;;;;;;;0.80;0.50;;;12.30;83.80;;;11.62;78.91;96031.31;4951076;28;20457;-78
2023/10/26 02:13:49;;;;;;;0.60;0.50;;;12.30;83.60;;;11.69;78.89;96038.31;4962713;28;20452;-75
2023/10/26 02:16:18;;;;;;;0.70;0.50;;;12.30;83.60;;;11.79;78.92;96043.75;4960766;28;20465;-76
2023/10/26 02:18:46;;;;;;;0.80;0.40;;;12.30;83.80;;;11.66;79.37;96038.88;4964280;28;20588;-79
2023/10/26 02:21:13;;;;;;;0.50;0.37;;;12.30;83.80;;;11.64;78.92;96041.03;4965563;28;20570;-76
2023/10/26 02:23:41;;;;;;;0.63;0.40;;;12.30;83.40;;;11.75;78.39;96037.22;4963373;28;20509;-76
2023/10/26 02:26:09;;;;;;;1.30;0.40;;;12.30;83.40;;;11.77;78.13;96048.63;4964909;28;20458;-76
2023/10/26 02:28:36;;;;;;;0.60;0.47;;;12.40;83.30;;;11.71;78.56;96041.56;4963612;28;20509;-78
2023/10/26 02:31:05;;;;;;;0.50;0.40;;;12.30;83.40;;;11.83;78.21;96055.63;4962859;28;20451;-77
2023/10/26 02:33:32;;;;;;;0.50;0.33;;;12.30;83.40;;;11.71;78.56;96049.69;4962386;28;20520;-75
2023/10/26 02:35:59;;;;;;;0.73;0.63;;;12.30;83.40;;;11.71;79.07;96041.56;4964202;28;20457;-76
2023/10/26 02:38:26;;;;;;;2.83;0.60;;;12.30;83.80;;;11.76;78.29;96036.16;4965445;28;20531;-78
2023/10/26 02:40:53;;;;;;;0.53;0.43;;;12.30;83.30;;;11.74;78.24;96039.13;4949860;28;20934;-76
2023/10/26 02:43:20;;;;;;;1.00;0.67;;;12.30;83.30;;;11.72;78.94;96049.41;4950929;28;20521;-78
2023/10/26 02:45:48;;;;;;;1.03;0.50;;;12.30;83.40;;;11.67;79.05;96040.50;4959249;28;21018;-77
2023/10/26 02:48:16;;;;;;;0.50;0.40;;;12.20;83.80;;;11.67;79.34;96043.19;4961060;28;20456;-76
2023/10/26 02:50:43;;;;;;;1.27;0.73;;;12.20;83.60;;;11.72;78.84;96048.59;4963956;28;20475;-77
2023/10/26 02:53:11;;;;;;;0.60;0.50;;;12.30;83.50;;;11.83;78.28;96052.09;4957145;28;20461;-77
2023/10/26 02:55:39;;;;;;;0.70;0.57;;;12.30;83.20;;;11.67;79.13;96043.19;4945444;28;20539;-77
2023/10/26 02:58:06;;;;;;;0.80;0.60;;;12.30;83.40;;;11.56;79.89;96040.47;4960250;28;20910;-74
2023/10/26 03:00:33;;;;;;;1.43;0.60;;;12.20;83.60;;;11.71;79.43;96046.97;4964156;28;20970;-76
2023/10/26 03:03:00;;;;;;;0.50;0.50;;;12.20;83.70;;;11.52;79.36;96042.09;4949701;28;20856;-76
2023/10/26 03:05:29;;;;;;;1.57;0.60;;;12.20;83.50;;;11.66;78.99;96044.28;4963044;28;20463;-77
2023/10/26 03:07:57;;;;;;;0.67;0.60;;;12.20;83.60;;;11.53;79.49;96054.53;4954212;28;20450;-77
2023/10/26 03:10:24;;;;;;;1.17;0.40;;;12.20;83.50;;;11.68;79.01;96052.94;4965255;28;20525;-75
2023/10/26 03:12:52;;;;;;;0.53;0.40;;;12.20;83.30;;;11.61;79.14;96048.63;4962425;28;20560;-77
2023/10/26 03:15:20;;;;;;;0.90;0.50;;;12.20;83.50;;;11.62;79.29;96044.00;4966900;28;20958;-76
2023/10/26 03:17:47;;;;;;;0.80;0.60;;;12.20;83.50;;;11.77;78.68;96056.72;4948739;28;20481;-76
2023/10/26 03:20:14;;;;;;;0.70;0.70;;;12.20;83.60;;;11.71;79.32;96058.63;4964239;28;20486;-77
2023/10/26 03:22:43;;;;;;;1.00;0.60;;;12.20;83.60;;;11.72;78.86;96054.00;4963384;28;20453;-76
2023/10/26 03:25:13;;;;;;;1.00;0.67;;;12.20;83.50;;;11.72;78.68;96054.00;4951799;28;20529;-76
2023/10/26 03:27:41;;;;;;;0.50;0.47;;;12.20;83.40;;;11.74;78.63;96052.66;4952289;28;21044;-76
2023/10/26 03:30:09;;;;;;;0.80;0.63;;;12.20;83.40;;;11.74;78.59;96057.25;4959572;28;20469;-76
2023/10/26 03:32:36;;;;;;;1.50;0.63;;;12.20;83.40;;;11.73;78.82;96055.63;4946115;28;20457;-77
2023/10/26 03:35:05;;;;;;;1.03;0.60;;;12.20;83.50;;;11.72;78.12;96056.72;4947784;28;20874;-76
2023/10/26 03:37:32;;;;;;;1.20;0.83;;;12.30;83.30;;;11.73;78.95;96053.75;4951129;28;20458;-76
2023/10/26 03:40:00;;;;;;;0.50;0.50;;;12.20;83.40;;;11.49;79.92;96056.19;4947916;28;20485;-75
2023/10/26 03:42:28;;;;;;;0.93;0.70;;;12.20;83.50;;;11.59;79.33;96056.16;4947611;28;20493;-76
2023/10/26 03:44:55;;;;;;;0.90;0.90;;;12.10;83.60;;;11.60;79.81;96060.53;4953121;28;20962;-76
2023/10/26 03:47:22;;;;;;;0.70;0.60;;;12.10;83.80;;;11.59;79.49;96061.56;4944730;28;20483;-77
2023/10/26 03:49:51;;;;;;;0.90;0.60;;;12.10;83.50;;;11.64;79.07;96052.66;4945297;28;20456;-76
2023/10/26 03:52:19;;;;;;;0.60;0.47;;;12.20;83.60;;;11.58;79.57;96061.84;4971665;28;20577;-76
2023/10/26 03:54:46;;;;;;;0.70;0.70;;;12.20;83.50;;;11.51;79.80;96054.00;4962896;28;20558;-76
2023/10/26 03:57:16;;;;;;;5.03;0.67;;;12.10;83.60;;;11.33;80.29;96031.81;4953566;28;20461;-76
2023/10/26 03:59:43;;;;;;;2.73;0.80;;;12.10;83.70;;;11.56;79.97;96051.28;4961746;28;20472;-76
2023/10/26 04:02:10;;;;;;;0.70;0.70;;;12.10;83.80;;;11.53;79.49;96051.84;4960639;28;20462;-76
2023/10/26 04:04:39;;;;;;;1.00;0.63;;;12.10;83.60;;;11.65;79.50;96058.88;4961863;28;20450;-76
2023/10/26 04:07:07;;;;;;;1.17;0.50;;;12.10;83.60;;;11.52;79.53;96050.22;4958720;28;20465;-77
2023/10/26 04:09:34;;;;;;;6.67;0.80;;;12.10;83.60;;;11.60;79.55;96057.81;4963949;28;21274;-76
2023/10/26 04:12:02;;;;;;;0.97;0.50;;;12.10;83.60;;;11.58;79.56;96046.44;4964990;28;20465;-76
2023/10/26 04:14:33;;;;;;;1.10;0.70;;;12.20;83.70;;;11.58;79.85;96054.53;4968961;28;20476;-76
2023/10/26 04:17:00;;;;;;;1.60;0.60;;;12.10;83.70;;;11.60;79.71;96057.81;4967693;28;20513;-76
2023/10/26 04:19:27;;;;;;;0.97;0.80;;;12.10;83.70;;;11.59;79.89;96050.75;4960084;28;20486;-77
2023/10/26 04:21:54;;;;;;;1.20;1.00;;;12.10;83.80;;;11.62;79.40;96052.94;4949071;28;20538;-77
2023/10/26 04:24:22;;;;;;;1.53;0.80;;;12.10;83.70;;;11.56;80.29;96056.72;4948225;28;20884;-77
2023/10/26 04:26:49;;;;;;;3.40;1.07;;;12.10;83.80;;;11.53;80.10;96051.84;4948548;28;21082;-78
2023/10/26 04:29:16;;;;;;;0.70;0.67;;;12.10;83.80;;;11.54;80.22;96058.06;4944771;28;20463;-77
2023/10/26 04:31:45;;;;;;;1.20;0.87;;;12.10;83.90;;;11.50;80.40;96056.97;4965139;28;20458;-77
2023/10/26 04:34:12;;;;;;;0.63;0.63;;;12.10;84.00;;;11.57;79.97;96058.31;4965326;28;20461;-79
2023/10/26 04:36:39;;;;;;;0.60;0.60;;;12.10;84.00;;;11.54;80.51;96048.06;4947498;28;20455;-77
2023/10/26 04:39:08;;;;;;;1.27;0.63;;;12.10;84.10;;;11.59;80.18;96056.16;4940988;28;20455;-77
2023/10/26 04:41:35;;;;;;;1.47;0.60;;;12.10;84.20;;;11.53;80.60;96051.84;4957237;28;20457;-77
2023/10/26 04:44:04;;;;;;;1.10;0.80;;;12.10;84.20;;;11.52;80.56;96061.03;4946054;28;20460;-77
2023/10/26 04:46:32;;;;;;;2.93;0.80;;;12.00;84.10;;;11.55;79.98;96041.56;4964538;28;20448;-77
2023/10/26 04:49:01;;;;;;;0.90;0.70;;;12.10;84.10;;;11.16;80.72;95993.44;4964767;28;20471;-78
2023/10/26 04:51:29;;;;;;;1.10;0.70;;;12.00;84.20;;;11.50;80.59;96060.50;4958848;28;20453;-76
2023/10/26 04:53:56;;;;;;;1.10;0.80;;;12.10;84.10;;;11.64;80.42;96058.06;4964194;28;20460;-76
2023/10/26 04:56:23;;;;;;;1.30;0.80;;;12.10;84.20;;;11.66;79.93;96049.69;4965938;28;20466;-81
2023/10/26 04:58:51;;;;;;;2.20;0.93;;;12.10;84.10;;;11.60;80.47;96057.81;4962358;28;20462;-81
2023/10/26 05:01:18;;;;;;;1.07;0.93;;;12.10;84.10;;;11.59;80.31;96056.16;4958315;28;20913;-78
2023/10/26 05:03:45;;;;;;;3.20;1.10;;;12.10;84.10;;;11.62;80.68;96050.25;4957470;28;20464;-79
2023/10/26 05:06:15;;;;;;;1.60;0.93;;;12.10;84.20;;;11.59;80.88;96058.88;4951220;28;20461;-79
2023/10/26 05:08:42;;;;;;;1.60;0.93;;;12.10;84.20;;;11.46;81.20;96062.94;4974183;28;20453;-76
2023/10/26 05:11:09;;;;;;;2.37;0.83;;;12.10;84.30;;;11.55;80.99;96052.38;4943922;28;20470;-79
2023/10/26 05:13:36;;;;;;;6.07;0.97;;;12.10;84.40;;;11.28;80.53;96007.47;4964351;28;20488;-74
2023/10/26 05:16:05;;;;;;;0.90;0.90;;;12.10;84.20;;;11.67;80.21;96065.63;4951264;28;20462;-80
2023/10/26 05:18:32;;;;;;;0.97;0.83;;;12.10;84.20;;;11.63;80.74;96056.44;4944318;28;20786;-78
2023/10/26 05:20:59;;;;;;;1.13;1.00;;;12.20;84.20;;;11.72;81.86;96059.41;4961938;28;20582;-76
2023/10/26 05:23:28;;;;;;;1.83;1.20;;;12.20;84.90;;;11.55;81.41;96060.50;4946125;28;20487;-77
2023/10/26 05:25:55;;;;;;;2.90;1.70;;;12.20;84.30;;;11.67;81.30;96067.53;4963883;28;20469;-74
2023/10/26 05:28:23;;;;;;;0.80;0.80;;;12.20;84.50;;;11.70;81.20;96062.41;4964743;28;20467;-79
2023/10/26 05:30:54;;;;;;;1.77;0.83;;;12.20;84.50;;;11.80;81.99;96066.19;4951730;28;20447;-79
2023/10/26 05:33:21;;;;;;;2.53;0.83;;;12.20;84.90;;;11.77;80.94;96056.72;4968656;28;20880;-69
2023/10/26 05:35:48;;;;;;;2.13;1.43;;;12.30;84.70;;;11.95;80.89;96051.84;4965243;28;21203;-70
2023/10/26 05:38:18;;;;;;;2.60;0.90;;;12.40;84.70;;;11.51;79.97;95989.09;4965929;28;20476;-71
2023/10/26 05:40:55;;;;;;;2.07;1.87;;;12.40;84.20;;;11.74;81.00;96055.38;4965849;28;20485;-68
2023/10/26 05:43:22;;;;;;;1.67;1.37;;;12.40;84.20;;;11.85;80.75;96048.03;4960921;28;20477;-69
2023/10/26 05:45:50;;;;;;;5.27;2.20;;;12.40;84.60;;;11.94;80.24;96055.63;4960667;28;20463;-70
2023/10/26 05:48:19;;;;;;;4.30;2.33;;;12.40;84.30;;;11.81;80.52;96051.56;4956833;28;20466;-69
2023/10/26 05:50:47;;;;;;;4.87;3.23;;;12.40;84.30;;;11.47;81.03;95999.66;4957140;28;20460;-69
2023/10/26 05:53:14;;;;;;;2.33;1.73;;;12.40;84.50;;;11.70;81.14;96057.00;4941725;28;20452;-68
2023/10/26 05:55:41;;;;;;;6.47;2.70;;;12.30;84.40;;;11.92;81.21;96069.41;4948814;28;21026;-68
2023/10/26 05:58:10;;;;;;;6.03;2.03;;;12.40;84.70;;;11.81;81.02;96059.69;4960020;28;20807;-69
2023/10/26 06:00:38;;;;;;;1.63;1.00;;;12.40;84.50;;;11.81;80.64;96068.63;4962761;28;20540;-71
2023/10/26 06:03:05;;;;;;;1.90;1.30;;;12.40;84.50;;;11.68;81.37;96069.16;4968301;28;20450;-70
2023/10/26 06:05:33;;;;;;;3.60;1.77;;;12.30;84.60;;;11.87;80.92;96075.63;4962267;28;20459;-70
2023/10/26 06:08:00;;;;;;;6.30;3.03;;;12.30;84.60;;;12.00;81.57;96070.75;4957050;28;20472;-79
2023/10/26 06:10:27;;;;;;;2.30;1.03;;;12.40;85.10;;;11.87;80.44;96083.75;4958334;28;20465;-73
2023/10/26 06:12:54;;;;;;;1.47;1.33;;;12.40;84.30;;;11.79;81.17;96062.69;4957029;28;20510;-68
2023/10/26 06:15:23;;;;;;;2.50;1.93;;;12.40;84.70;;;11.96;81.07;96069.69;4961410;28;20456;-70
2023/10/26 06:17:52;;;;;;;5.23;3.80;;;12.50;84.80;;;11.83;82.12;96076.44;4947053;28;20607;-70
2023/10/26 06:20:19;;;;;;;4.20;2.33;;;12.40;84.90;;;11.80;82.47;96079.69;4967646;28;20477;-69
2023/10/26 06:22:46;;;;;;;1.60;1.37;;;12.30;85.20;;;11.82;81.98;96088.34;4950784;28;20544;-71
2023/10/26 06:25:13;;;;;;;4.60;1.70;;;12.40;85.10;;;11.82;82.20;96081.06;4962566;28;20461;-70
2023/10/26 06:27:41;;;;;;;7.30;2.63;;;12.40;85.20;;;11.88;82.19;96082.69;4949251;28;20939;-70
2023/10/26 06:30:09;;;;;;;1.70;1.20;;;12.40;85.50;;;11.59;83.50;96093.22;4962295;28;20458;-69
2023/10/26 06:32:38;;;;;;;3.03;1.37;;;12.20;85.40;;;11.60;83.22;96092.16;4972417;28;20494;-69
2023/10/26 06:35:06;;;;;;;2.37;1.40;;;12.20;85.50;;;11.59;84.33;96093.22;4970036;28;20469;-68
2023/10/26 06:37:33;;;;;;;2.70;1.30;;;12.10;85.80;;;11.67;83.83;96100.00;4947305;28;21015;-70
2023/10/26 06:40:00;;;;;;;1.83;1.30;;;12.20;86.00;;;11.36;83.89;96054.00;4961495;28;20469;-70
2023/10/26 06:42:28;;;;;;;2.23;1.10;;;12.20;86.10;;;11.56;84.30;96091.88;4948313;28;20561;-71
2023/10/26 06:44:55;;;;;;;3.20;2.00;;;12.10;85.90;;;11.60;84.75;96095.69;4968044;28;20467;-70
2023/10/26 06:47:22;;;;;;;3.27;1.83;;;12.20;86.20;;;11.59;85.15;96102.13;4967111;28;20469;-69
2023/10/26 06:49:51;;;;;;;2.30;1.63;;;12.10;86.40;;;11.60;84.42;96103.78;4966348;28;20463;-70
2023/10/26 06:52:18;;;;;;;3.33;2.50;;;12.20;86.10;;;11.88;83.85;96107.03;4967303;28;20461;-72
2023/10/26 06:54:48;;;;;;;2.33;1.30;;;12.30;86.50;;;11.58;84.27;96097.81;4946165;28;20958;-69
2023/10/26 06:57:16;;;;;;;3.17;1.30;;;12.20;86.20;;;11.69;84.17;96105.94;4965103;28;20511;-69
2023/10/26 06:59:43;;;;;;;2.93;1.53;;;12.20;86.30;;;11.57;84.74;96111.63;4951380;28;20447;-70
2023/10/26 07:02:12;;;;;;;1.80;1.33;;;12.10;86.20;;;11.77;83.96;96114.34;4965261;28;20497;-71
2023/10/26 07:04:39;;;;;;;1.50;1.37;;;12.20;86.30;;;11.74;83.75;96116.75;4968074;28;20457;-71
2023/10/26 07:07:08;;;;;;;1.10;0.80;;;12.30;86.10;;;11.60;84.29;96111.91;4969797;28;20479;-70
2023/10/26 07:09:36;;;;;;;1.20;1.10;;;12.20;85.80;;;11.79;83.59;96114.06;4954744;28;20831;-68
2023/10/26 07:12:05;;;;;;;2.70;1.70;;;12.30;86.20;;;11.69;84.14;96114.88;4962119;28;20463;-70
2023/10/26 07:14:32;;;;;;;2.23;1.70;;;12.20;86.20;;;11.81;83.78;96109.22;4966810;28;20455;-68
2023/10/26 07:16:59;;;;;;;2.90;1.30;;;12.30;86.00;;;12.08;82.55;96112.75;4966090;28;21034;-70
2023/10/26 07:19:26;;;;;;;2.70;1.53;;;12.40;86.10;;;12.22;81.66;96104.91;4961777;28;20450;-68
2023/10/26 07:21:54;;;;;;;1.27;1.13;;;12.60;85.70;;;11.84;82.26;96103.25;4965408;28;20911;-68
2023/10/26 07:24:22;;;;;;;1.43;1.23;;;12.50;85.30;;;11.97;83.02;96109.19;4947070;28;20455;-68
2023/10/26 07:26:50;;;;;;;2.20;1.10;;;12.50;86.00;;;11.99;82.58;96112.44;4966242;28;20457;-69
2023/10/26 07:29:17;;;;;;;1.60;1.50;;;12.50;85.90;;;11.90;83.21;96110.31;4963704;28;20464;-68
2023/10/26 07:31:46;;;;;;;2.40;1.57;;;12.40;85.70;;;11.74;83.97;96117.59;4965769;28;20458;-67
2023/10/26 07:34:13;;;;;;;2.27;1.93;;;12.40;86.00;;;11.94;83.96;96120.56;4948064;28;20547;-69
2023/10/26 07:36:40;;;;;;;3.33;1.50;;;12.40;86.30;;;11.73;83.37;96109.72;4965381;28;20469;-69
2023/10/26 07:39:08;;;;;;;3.27;1.60;;;12.40;86.00;;;11.83;84.48;96117.84;4961454;28;20484;-67
2023/10/26 07:41:36;;;;;;;1.20;1.10;;;12.30;86.30;;;11.98;83.93;96121.66;4960269;28;20488;-67
2023/10/26 07:44:04;;;;;;;1.20;1.10;;;12.40;86.50;;;11.84;83.12;96111.38;4967658;28;20459;-67
2023/10/26 07:46:31;;;;;;;1.50;1.20;;;12.40;85.70;;;11.98;81.77;96114.34;4964949;28;20463;-67
2023/10/26 07:48:59;;;;;;;1.43;1.20;;;12.50;85.40;;;12.16;81.07;96113.00;4967352;28;20533;-67
2023/10/26 07:51:26;;;;;;;4.27;1.13;;;12.50;85.40;;;12.35;80.34;96117.84;4961802;28;20575;-67
2023/10/26 07:53:54;;;;;;;1.50;1.00;;;12.70;85.20;;;12.47;79.74;96123.00;4942150;28;20458;-67
2023/10/26 07:56:21;;;;;;;1.90;1.23;;;12.80;85.00;;;12.56;78.42;96109.69;4964862;28;20475;-67
2023/10/26 07:58:49;;;;;;;2.63;1.40;;;13.00;84.30;;;12.38;78.91;96119.22;4959743;28;20463;-68
2023/10/26 08:01:16;;;;;;;1.53;1.00;;;13.00;84.10;;;12.55;78.73;96121.63;4961603;28;20488;-68
2023/10/26 08:03:44;;;;;;;8.23;1.33;;;13.00;84.10;;;12.85;76.75;96128.03;4961278;28;20459;-67
2023/10/26 08:06:11;;;;;;;1.90;1.50;;;13.20;83.50;;;13.20;75.17;96122.75;4967183;28;20450;-67
2023/10/26 08:08:39;;;;;;;1.10;1.00;;;13.50;83.00;;;13.38;73.69;96118.56;4966117;28;20453;-67
2023/10/26 08:11:11;;;;;;;1.90;1.13;;;13.70;82.40;;;13.07;73.37;96116.00;4961801;28;20559;-69
2023/10/26 08:13:38;;;;;;;0.90;0.70;;;13.70;81.40;;;12.63;74.92;96110.19;4966844;28;20459;-67
2023/10/26 08:16:08;;;;;;;5.53;1.10;;;13.40;81.90;;;12.85;74.89;96111.78;4956265;28;20801;-69
2023/10/26 08:18:36;;;;;;;2.00;1.60;;;13.40;81.90;;;12.64;75.47;96111.03;4964291;28;20455;-67
2023/10/26 08:21:05;;;;;;;4.67;1.63;;;13.40;81.70;;;13.15;74.26;96116.25;4966966;28;20490;-66
2023/10/26 08:23:33;;;;;;;3.80;1.07;;;13.60;81.90;;;13.34;72.55;96114.81;4967524;28;20542;-68
2023/10/26 08:26:07;;;;;;;1.20;1.10;;;13.80;81.20;;;13.38;72.59;96107.72;4967288;28;20458;-67
2023/10/26 08:28:35;;;;;;;1.30;1.20;;;13.80;80.90;;;13.38;72.38;96110.44;4967220;28;20486;-70
2023/10/26 08:31:02;;;;;;;1.73;1.00;;;13.90;80.80;;;13.59;71.68;96106.53;4954926;28;20453;-67
2023/10/26 08:33:33;;;;;;;2.40;1.33;;;14.00;80.50;;;13.64;71.03;96105.69;4961461;28;20935;-67
2023/10/26 08:36:00;;;;;;;4.47;1.90;;;14.10;80.40;;;13.53;70.33;96107.66;4959646;28;20455;-67
2023/10/26 08:38:28;;;;;;;1.30;1.20;;;14.20;79.80;;;13.48;71.38;96098.72;4964204;28;20784;-67
2023/10/26 08:40:56;;;;;;;1.07;1.00;;;14.00;79.80;;;13.67;70.57;96098.88;4964645;28;20808;-69
2023/10/26 08:43:24;;;;;;;1.20;1.10;;;14.10;79.90;;;13.66;70.41;96102.69;4962986;28;20458;-68
2023/10/26 08:45:54;;;;;;;3.00;1.00;;;14.20;79.70;;;13.47;70.84;96103.38;4951220;28;20964;-68
2023/10/26 08:48:22;;;;;;;2.50;0.90;;;14.10;79.60;;;13.64;70.36;96099.47;4960053;28;20467;-68
2023/10/26 08:50:50;;;;;;;1.20;1.00;;;14.10;79.30;;;13.27;71.61;96091.53;4954275;28;20452;-68
2023/10/26 08:53:19;;;;;;;1.33;1.23;;;14.00;79.30;;;13.29;71.12;96094.75;4963735;28;20453;-68
2023/10/26 08:55:48;;;;;;;1.93;1.20;;;14.00;79.60;;;13.16;72.62;96095.38;4948446;28;20538;-68
2023/10/26 08:58:15;;;;;;;2.50;1.00;;;13.70;79.80;;;13.63;71.10;96089.69;4958311;28;20459;-68
2023/10/26 09:00:43;;;;;;;1.80;1.33;;;14.00;79.90;;;13.87;69.76;96097.94;4960775;28;20475;-70
2023/10/26 09:03:10;;;;;;;3.10;1.47;;;14.20;79.50;;;13.68;70.54;96078.78;4941012;28;20639;-67
2023/10/26 09:05:54;;;;;;;1.40;1.27;;;14.30;79.40;;;13.50;71.33;96100.09;4950995;28;20461;-69
2023/10/26 09:08:22;;;;;;;3.50;1.50;;;14.10;79.50;;;13.86;70.12;96094.38;4965179;28;20456;-68
2023/10/26 09:10:50;;;;;;;1.53;1.27;;;14.30;79.30;;;13.91;69.13;96098.19;4967012;28;20523;-69
2023/10/26 09:13:25;;;;;;;3.67;1.20;;;14.40;78.90;;;13.91;69.54;96081.88;4964661;28;20453;-69
2023/10/26 09:15:57;;;;;;;3.47;1.60;;;14.40;78.90;;;13.93;69.66;96093.28;4948594;28;20488;-68
2023/10/26 09:18:25;;;;;;;2.10;1.00;;;14.50;78.90;;;14.15;68.97;96090.09;4948153;28;20494;-67
2023/10/26 09:21:05;;;;;;;4.10;1.33;;;14.60;78.80;;;13.57;69.96;96089.75;4951894;28;20561;-69
2023/10/26 09:23:34;;;;;;;1.87;1.30;;;14.40;78.40;;;13.94;69.71;96084.81;4970192;28;20478;-67
2023/10/26 09:26:04;;;;;;;1.00;0.87;;;14.30;78.70;;;14.19;68.43;96082.19;4967327;28;20717;-67
2023/10/26 09:28:48;;;;;;;1.43;1.10;;;14.60;78.40;;;14.05;68.72;96092.88;4967871;28;20553;-66
2023/10/26 09:31:15;;;;;;;4.50;1.30;;;14.70;78.40;;;13.69;69.58;96108.38;4965104;28;20542;-68
2023/10/26 09:33:42;;;;;;;2.00;1.07;;;14.50;78.00;;;14.00;68.66;96102.72;4976645;28;20459;-68
2023/10/26 09:36:15;;;;;;;2.87;1.30;;;14.50;78.10;;;14.17;68.10;96099.56;4977764;28;20469;-68
2023/10/26 09:38:43;;;;;;;2.47;1.10;;;14.60;78.00;;;13.80;68.54;96098.25;4955420;28;20464;-68
2023/10/26 09:41:15;;;;;;;1.93;1.10;;;14.50;77.50;;;14.06;67.54;96099.94;4965429;28;20511;-66
2023/10/26 09:43:43;;;;;;;1.20;0.90;;;14.60;77.30;;;14.02;67.33;96099.69;4969144;28;20490;-67
2023/10/26 09:46:12;;;;;;;1.87;0.83;;;14.60;76.90;;;14.01;66.10;96088.03;4968209;28;20507;-67
2023/10/26 09:48:40;;;;;;;1.40;0.93;;;14.70;76.20;;;14.08;65.35;96049.69;4966019;28;20467;-68
2023/10/26 09:51:08;;;;;;;1.13;0.60;;;14.90;76.10;;;14.43;64.70;96099.31;4968419;28;20456;-68
2023/10/26 09:53:40;;;;;;;0.53;0.50;;;14.90;75.40;;;14.23;64.60;96099.53;4969029;28;20460;-69
2023/10/26 09:56:13;;;;;;;0.67;0.67;;;14.90;74.80;;;14.76;63.55;96097.91;4963937;28;20514;-68
2023/10/26 09:58:42;;;;;;;2.90;0.60;;;15.10;74.70;;;14.97;61.58;96093.03;4970062;28;20611;-69
2023/10/26 10:01:31;;;;;;;0.60;0.60;;;15.40;73.90;;;15.00;61.74;96101.44;4957657;28;20484;-68
2023/10/26 10:03:59;;;;;;;0.83;0.77;;;15.40;73.60;;;14.65;62.62;96099.91;4968077;28;20453;-68
2023/10/26 10:06:52;;;;;;;0.60;0.50;;;15.20;73.20;;;14.65;61.88;96116.22;4967597;28;20756;-68
2023/10/26 10:09:24;;;;;;;0.73;0.60;;;15.30;72.90;;;14.90;61.71;96120.59;4963828;28;20483;-68
2023/10/26 10:12:32;;;;;;;0.80;0.60;;;15.30;73.00;;;14.80;60.99;96126.16;4977210;28;20791;-68
2023/10/26 10:15:03;;;;;;;0.80;0.80;;;15.30;72.30;;;14.80;62.09;96132.38;4948175;28;20455;-69
2023/10/26 10:18:06;;;;;;;1.33;0.60;;;15.30;72.70;;;14.75;61.98;96131.63;4948487;28;20555;-68
2023/10/26 10:20:35;;;;;;;1.10;0.90;;;15.40;72.50;;;15.01;61.44;96135.69;4969728;28;20472;-68
2023/10/26 10:23:02;;;;;;;0.90;0.73;;;15.40;72.60;;;15.22;61.50;96137.34;4968932;28;20497;-68
2023/10/26 10:26:02;;;;;;;3.63;0.70;;;15.50;72.70;;;14.55;61.91;96133.44;4965767;28;20594;-68